sensor_id;sensor_type;location;lat;lon;timestamp;pressure;altitude;pressure_sealevel;temperature;humidity
66547;BME280;53400;50.364;14.874;2023-02-11T00:01:19;100360.53;;;-2.85;97.28
66547;BME280;53400;50.364;14.874;2023-02-11T00:03:45;100359.59;;;-2.84;97.12
66547;BME280;53400;50.364;14.874;2023-02-11T00:06:11;100356.47;;;-3.01;98.07
66547;BME280;53400;50.364;14.874;2023-02-11T00:08:38;100361.56;;;-2.99;98.15
66547;BME280;53400;50.364;14.874;2023-02-11T00:11:04;100353.56;;;-3.09;98.91
66547;BME280;53400;50.364;14.874;2023-02-11T00:13:31;100345.84;;;-3.10;99.69
66547;BME280;53400;50.364;14.874;2023-02-11T00:15:57;100352.81;;;-3.22;100.00
66547;BME280;53400;50.364;14.874;2023-02-11T00:18:24;100345.66;;;-3.20;100.00
66547;BME280;53400;50.364;14.874;2023-02-11T00:20:50;100344.44;;;-2.92;100.00
66547;BME280;53400;50.364;14.874;2023-02-11T00:23:16;100345.25;;;-3.03;99.93
66547;BME280;53400;50.364;14.874;2023-02-11T00:25:44;100334.44;;;-2.87;100.00
66547;BME280;53400;50.364;14.874;2023-02-11T00:28:10;100331.97;;;-2.55;98.53
66547;BME280;53400;50.364;14.874;2023-02-11T00:30:38;100330.16;;;-2.54;97.49
66547;BME280;53400;50.364;14.874;2023-02-11T00:33:03;100334.09;;;-2.60;97.28
66547;BME280;53400;50.364;14.874;2023-02-11T00:35:30;100334.59;;;-2.43;96.41
66547;BME280;53400;50.364;14.874;2023-02-11T00:37:55;100331.81;;;-2.08;94.79
66547;BME280;53400;50.364;14.874;2023-02-11T00:40:22;100341.81;;;-2.13;93.68
66547;BME280;53400;50.364;14.874;2023-02-11T00:42:47;100335.53;;;-2.22;93.52
66547;BME280;53400;50.364;14.874;2023-02-11T00:45:13;100340.41;;;-2.17;93.80
66547;BME280;53400;50.364;14.874;2023-02-11T00:47:41;100323.59;;;-2.03;93.14
66547;BME280;53400;50.364;14.874;2023-02-11T00:50:07;100313.53;;;-1.98;93.59
66547;BME280;53400;50.364;14.874;2023-02-11T00:52:33;100313.56;;;-2.10;93.99
66547;BME280;53400;50.364;14.874;2023-02-11T00:54:59;100308.16;;;-1.97;93.59
66547;BME280;53400;50.364;14.874;2023-02-11T00:57:25;100312.13;;;-2.02;93.89
66547;BME280;53400;50.364;14.874;2023-02-11T00:59:51;100306.94;;;-1.93;93.46
66547;BME280;53400;50.364;14.874;2023-02-11T01:02:17;100312.13;;;-2.02;94.51
66547;BME280;53400;50.364;14.874;2023-02-11T01:04:44;100296.47;;;-2.04;95.29
66547;BME280;53400;50.364;14.874;2023-02-11T01:07:10;100302.94;;;-2.08;95.33
66547;BME280;53400;50.364;14.874;2023-02-11T01:09:36;100295.75;;;-1.95;95.36
66547;BME280;53400;50.364;14.874;2023-02-11T01:12:02;100301.28;;;-2.20;96.75
66547;BME280;53400;50.364;14.874;2023-02-11T01:14:29;100297.69;;;-2.08;96.98
66547;BME280;53400;50.364;14.874;2023-02-11T01:16:54;100289.66;;;-1.95;96.15
66547;BME280;53400;50.364;14.874;2023-02-11T01:19:20;100276.75;;;-1.98;95.59
66547;BME280;53400;50.364;14.874;2023-02-11T01:21:47;100274.38;;;-1.90;95.05
66547;BME280;53400;50.364;14.874;2023-02-11T01:24:13;100272.03;;;-1.72;94.10
66547;BME280;53400;50.364;14.874;2023-02-11T01:26:39;100277.84;;;-2.01;95.34
66547;BME280;53400;50.364;14.874;2023-02-11T01:29:06;100279.63;;;-2.01;95.63
66547;BME280;53400;50.364;14.874;2023-02-11T01:31:31;100274.38;;;-1.90;95.41
66547;BME280;53400;50.364;14.874;2023-02-11T01:33:57;100277.16;;;-2.03;96.56
66547;BME280;53400;50.364;14.874;2023-02-11T01:36:24;100276.16;;;-1.91;96.58
66547;BME280;53400;50.364;14.874;2023-02-11T01:38:51;100262.03;;;-1.78;95.36
66547;BME280;53400;50.364;14.874;2023-02-11T01:41:17;100245.00;;;-1.95;95.86
66547;BME280;53400;50.364;14.874;2023-02-11T01:43:45;100247.34;;;-1.81;95.49
66547;BME280;53400;50.364;14.874;2023-02-11T01:46:20;100239.81;;;-1.74;94.96
66547;BME280;53400;50.364;14.874;2023-02-11T01:48:50;100244.88;;;-1.62;94.39
66547;BME280;53400;50.364;14.874;2023-02-11T01:51:20;100244.81;;;-1.71;94.00
66547;BME280;53400;50.364;14.874;2023-02-11T01:53:48;100250.47;;;-1.55;93.80
66547;BME280;53400;50.364;14.874;2023-02-11T01:56:36;100257.00;;;-1.49;94.27
66547;BME280;53400;50.364;14.874;2023-02-11T01:59:27;100258.13;;;-1.95;96.87
66547;BME280;53400;50.364;14.874;2023-02-11T02:01:56;100259.06;;;-2.28;97.93
66547;BME280;53400;50.364;14.874;2023-02-11T02:04:27;100248.50;;;-2.49;99.60
66547;BME280;53400;50.364;14.874;2023-02-11T02:07:00;100239.41;;;-2.34;99.22
66547;BME280;53400;50.364;14.874;2023-02-11T02:09:28;100229.84;;;-2.24;98.75
66547;BME280;53400;50.364;14.874;2023-02-11T02:11:58;100209.31;;;-1.98;96.86
66547;BME280;53400;50.364;14.874;2023-02-11T02:14:24;100213.66;;;-1.97;96.79
66547;BME280;53400;50.364;14.874;2023-02-11T02:16:51;100208.22;;;-1.84;95.41
66547;BME280;53400;50.364;14.874;2023-02-11T02:22:41;100192.19;;;-1.81;94.77
66547;BME280;53400;50.364;14.874;2023-02-11T02:25:20;100201.47;;;-1.77;95.40
66547;BME280;53400;50.364;14.874;2023-02-11T02:28:01;100214.72;;;-1.67;94.91
66547;BME280;53400;50.364;14.874;2023-02-11T02:30:57;100210.94;;;-2.06;97.48
66547;BME280;53400;50.364;14.874;2023-02-11T02:33:40;100217.97;;;-1.75;96.92
66547;BME280;53400;50.364;14.874;2023-02-11T02:36:14;100222.56;;;-1.88;97.54
66547;BME280;53400;50.364;14.874;2023-02-11T02:38:47;100219.72;;;-1.96;97.79
66547;BME280;53400;50.364;14.874;2023-02-11T02:41:16;100215.44;;;-2.41;99.66
66547;BME280;53400;50.364;14.874;2023-02-11T02:43:45;100222.38;;;-2.51;100.00
66547;BME280;53400;50.364;14.874;2023-02-11T02:46:14;100214.50;;;-2.40;100.00
66547;BME280;53400;50.364;14.874;2023-02-11T02:48:42;100209.16;;;-2.17;100.00
66547;BME280;53400;50.364;14.874;2023-02-11T02:51:16;100202.50;;;-2.21;100.00
66547;BME280;53400;50.364;14.874;2023-02-11T02:53:54;100199.25;;;-2.14;100.00
66547;BME280;53400;50.364;14.874;2023-02-11T02:56:28;100197.13;;;-1.88;98.73
66547;BME280;53400;50.364;14.874;2023-02-11T02:59:15;100184.75;;;-1.97;98.07
66547;BME280;53400;50.364;14.874;2023-02-11T03:01:54;100182.59;;;-1.71;97.69
66547;BME280;53400;50.364;14.874;2023-02-11T03:04:28;100188.53;;;-1.27;95.64
66547;BME280;53400;50.364;14.874;2023-02-11T03:07:02;100180.16;;;-1.83;97.31
66547;BME280;53400;50.364;14.874;2023-02-11T03:09:32;100157.28;;;-1.93;98.67
66547;BME280;53400;50.364;14.874;2023-02-11T03:12:01;100157.22;;;-2.02;99.87
66547;BME280;53400;50.364;14.874;2023-02-11T03:14:29;100160.38;;;-1.88;99.73
66547;BME280;53400;50.364;14.874;2023-02-11T03:16:58;100159.28;;;-1.85;99.52
66547;BME280;53400;50.364;14.874;2023-02-11T03:19:29;100156.22;;;-1.69;99.27
66547;BME280;53400;50.364;14.874;2023-02-11T03:21:56;100158.44;;;-2.06;98.86
66547;BME280;53400;50.364;14.874;2023-02-11T03:24:26;100156.34;;;-1.92;98.64
66547;BME280;53400;50.364;14.874;2023-02-11T03:26:54;100154.34;;;-1.99;97.64
66547;BME280;53400;50.364;14.874;2023-02-11T03:29:34;100159.41;;;-1.66;97.00
66547;BME280;53400;50.364;14.874;2023-02-11T03:32:06;100163.25;;;-1.70;95.66
66547;BME280;53400;50.364;14.874;2023-02-11T03:34:41;100156.66;;;-1.64;95.15
66547;BME280;53400;50.364;14.874;2023-02-11T03:37:11;100170.09;;;-1.78;94.77
66547;BME280;53400;50.364;14.874;2023-02-11T03:39:41;100162.28;;;-1.90;95.59
66547;BME280;53400;50.364;14.874;2023-02-11T03:42:09;100148.81;;;-1.96;96.97
66547;BME280;53400;50.364;14.874;2023-02-11T03:44:41;100144.13;;;-2.14;96.88
66547;BME280;53400;50.364;14.874;2023-02-11T03:47:10;100136.50;;;-2.17;96.92
66547;BME280;53400;50.364;14.874;2023-02-11T03:49:40;100132.34;;;-2.19;97.78
66547;BME280;53400;50.364;14.874;2023-02-11T03:52:08;100124.84;;;-2.24;98.02
66547;BME280;53400;50.364;14.874;2023-02-11T03:54:37;100125.03;;;-2.37;98.80
66547;BME280;53400;50.364;14.874;2023-02-11T03:57:05;100118.88;;;-2.26;97.88
66547;BME280;53400;50.364;14.874;2023-02-11T03:59:48;100107.13;;;-1.90;96.71
66547;BME280;53400;50.364;14.874;2023-02-11T04:02:14;100102.28;;;-1.73;95.55
66547;BME280;53400;50.364;14.874;2023-02-11T04:04:41;100103.38;;;-1.45;94.34
66547;BME280;53400;50.364;14.874;2023-02-11T04:07:08;100101.16;;;-1.71;96.28
66547;BME280;53400;50.364;14.874;2023-02-11T04:09:35;100089.00;;;-1.93;98.48
66547;BME280;53400;50.364;14.874;2023-02-11T04:12:01;100091.84;;;-1.85;100.00
66547;BME280;53400;50.364;14.874;2023-02-11T04:14:27;100081.41;;;-1.65;99.09
66547;BME280;53400;50.364;14.874;2023-02-11T04:16:53;100075.38;;;-1.56;97.99
66547;BME280;53400;50.364;14.874;2023-02-11T04:19:19;100068.38;;;-1.76;99.73
66547;BME280;53400;50.364;14.874;2023-02-11T04:21:46;100078.03;;;-1.77;99.48
66547;BME280;53400;50.364;14.874;2023-02-11T04:24:12;100079.16;;;-1.79;100.00
66547;BME280;53400;50.364;14.874;2023-02-11T04:26:38;100078.50;;;-1.93;100.00
66547;BME280;53400;50.364;14.874;2023-02-11T04:29:04;100071.66;;;-1.84;100.00
66547;BME280;53400;50.364;14.874;2023-02-11T04:31:30;100065.97;;;-1.58;99.84
66547;BME280;53400;50.364;14.874;2023-02-11T04:33:56;100055.19;;;-1.55;98.86
66547;BME280;53400;50.364;14.874;2023-02-11T04:36:22;100055.19;;;-1.55;98.56
66547;BME280;53400;50.364;14.874;2023-02-11T04:38:49;100047.56;;;-1.58;98.61
66547;BME280;53400;50.364;14.874;2023-02-11T04:41:15;100055.16;;;-1.65;98.88
66547;BME280;53400;50.364;14.874;2023-02-11T04:43:40;100065.50;;;-1.73;99.59
66547;BME280;53400;50.364;14.874;2023-02-11T04:46:07;100060.38;;;-1.75;100.00
66547;BME280;53400;50.364;14.874;2023-02-11T04:48:32;100046.84;;;-1.70;99.71
66547;BME280;53400;50.364;14.874;2023-02-11T04:51:00;100041.72;;;-1.72;99.94
66547;BME280;53400;50.364;14.874;2023-02-11T04:53:25;100032.47;;;-1.66;99.57
66547;BME280;53400;50.364;14.874;2023-02-11T04:55:53;100029.50;;;-1.52;99.23
66547;BME280;53400;50.364;14.874;2023-02-11T04:58:19;100035.84;;;-1.54;98.91
66547;BME280;53400;50.364;14.874;2023-02-11T05:00:45;100041.66;;;-1.51;99.39
66547;BME280;53400;50.364;14.874;2023-02-11T05:03:11;100045.69;;;-1.47;99.05
66547;BME280;53400;50.364;14.874;2023-02-11T05:05:38;100041.97;;;-1.44;99.17
66547;BME280;53400;50.364;14.874;2023-02-11T05:08:05;100049.91;;;-1.65;99.91
66547;BME280;53400;50.364;14.874;2023-02-11T05:10:31;100048.44;;;-1.58;99.80
66547;BME280;53400;50.364;14.874;2023-02-11T05:12:59;100038.38;;;-1.43;99.29
66547;BME280;53400;50.364;14.874;2023-02-11T05:15:25;100034.31;;;-1.57;99.72
66547;BME280;53400;50.364;14.874;2023-02-11T05:17:51;100026.63;;;-1.49;99.46
66547;BME280;53400;50.364;14.874;2023-02-11T05:20:17;100028.44;;;-1.40;98.95
66547;BME280;53400;50.364;14.874;2023-02-11T05:22:43;100045.88;;;-1.39;99.30
66547;BME280;53400;50.364;14.874;2023-02-11T05:25:09;100038.22;;;-1.51;99.70
66547;BME280;53400;50.364;14.874;2023-02-11T05:27:34;100042.50;;;-1.50;100.00
66547;BME280;53400;50.364;14.874;2023-02-11T05:30:03;100055.94;;;-1.44;99.69
66547;BME280;53400;50.364;14.874;2023-02-11T05:32:29;100055.13;;;-1.34;99.03
66547;BME280;53400;50.364;14.874;2023-02-11T05:34:55;100046.03;;;-1.30;98.22
66547;BME280;53400;50.364;14.874;2023-02-11T05:37:20;100039.16;;;-1.52;100.00
66547;BME280;53400;50.364;14.874;2023-02-11T05:39:47;100041.41;;;-1.48;100.00
66547;BME280;53400;50.364;14.874;2023-02-11T05:42:13;100045.38;;;-1.53;100.00
66547;BME280;53400;50.364;14.874;2023-02-11T05:44:39;100054.28;;;-1.45;100.00
66547;BME280;53400;50.364;14.874;2023-02-11T05:47:06;100056.06;;;-1.05;98.34
66547;BME280;53400;50.364;14.874;2023-02-11T05:49:33;100052.06;;;-0.99;97.36
66547;BME280;53400;50.364;14.874;2023-02-11T05:51:59;100047.69;;;-1.29;98.37
66547;BME280;53400;50.364;14.874;2023-02-11T05:54:25;100048.72;;;-1.51;100.00
66547;BME280;53400;50.364;14.874;2023-02-11T05:56:51;100041.41;;;-1.48;100.00
66547;BME280;53400;50.364;14.874;2023-02-11T05:59:17;100042.78;;;-1.44;100.00
66547;BME280;53400;50.364;14.874;2023-02-11T06:01:43;100041.06;;;-1.24;99.61
66547;BME280;53400;50.364;14.874;2023-02-11T06:04:11;100041.47;;;-1.28;99.90
66547;BME280;53400;50.364;14.874;2023-02-11T06:06:37;100041.91;;;-1.23;99.67
66547;BME280;53400;50.364;14.874;2023-02-11T06:09:03;100046.41;;;-1.35;100.00
66547;BME280;53400;50.364;14.874;2023-02-11T06:11:29;100049.50;;;-1.20;99.92
66547;BME280;53400;50.364;14.874;2023-02-11T06:13:55;100042.06;;;-1.15;98.78
66547;BME280;53400;50.364;14.874;2023-02-11T06:16:21;100038.72;;;-1.27;99.74
66547;BME280;53400;50.364;14.874;2023-02-11T06:18:47;100043.13;;;-1.27;99.57
66547;BME280;53400;50.364;14.874;2023-02-11T06:21:14;100042.75;;;-1.13;99.53
66547;BME280;53400;50.364;14.874;2023-02-11T06:23:40;100052.31;;;-1.12;99.48
66547;BME280;53400;50.364;14.874;2023-02-11T06:26:09;100049.13;;;-1.16;99.24
66547;BME280;53400;50.364;14.874;2023-02-11T06:28:40;100048.41;;;-1.18;98.88
66547;BME280;53400;50.364;14.874;2023-02-11T06:31:06;100041.81;;;-1.02;98.80
66547;BME280;53400;50.364;14.874;2023-02-11T06:33:33;100044.16;;;-1.09;99.39
66547;BME280;53400;50.364;14.874;2023-02-11T06:35:59;100032.34;;;-1.24;100.00
66547;BME280;53400;50.364;14.874;2023-02-11T06:38:26;100045.91;;;-1.19;100.00
66547;BME280;53400;50.364;14.874;2023-02-11T06:40:52;100032.09;;;-1.11;100.00
66547;BME280;53400;50.364;14.874;2023-02-11T06:43:18;100041.50;;;-1.19;99.53
66547;BME280;53400;50.364;14.874;2023-02-11T06:45:44;100031.84;;;-1.08;99.78
66547;BME280;53400;50.364;14.874;2023-02-11T06:48:10;100032.66;;;-0.98;99.50
66547;BME280;53400;50.364;14.874;2023-02-11T06:50:36;100020.50;;;-0.80;98.55
66547;BME280;53400;50.364;14.874;2023-02-11T06:53:02;100024.66;;;-0.77;98.18
66547;BME280;53400;50.364;14.874;2023-02-11T06:55:30;100029.41;;;-0.52;96.69
66547;BME280;53400;50.364;14.874;2023-02-11T06:57:56;100021.34;;;-0.21;95.38
66547;BME280;53400;50.364;14.874;2023-02-11T07:00:22;100016.06;;;-0.31;94.38
66547;BME280;53400;50.364;14.874;2023-02-11T07:02:48;100022.97;;;-0.20;94.40
66547;BME280;53400;50.364;14.874;2023-02-11T07:05:14;100018.81;;;-0.22;93.92
66547;BME280;53400;50.364;14.874;2023-02-11T07:07:40;100016.13;;;-0.03;93.54
66547;BME280;53400;50.364;14.874;2023-02-11T07:10:07;100022.53;;;-0.15;94.23
66547;BME280;53400;50.364;14.874;2023-02-11T07:12:34;100021.69;;;0.04;93.22
66547;BME280;53400;50.364;14.874;2023-02-11T07:15:00;100036.94;;;0.10;92.48
66547;BME280;53400;50.364;14.874;2023-02-11T07:17:26;100041.13;;;-0.17;93.07
66547;BME280;53400;50.364;14.874;2023-02-11T07:19:52;100046.13;;;-0.24;93.78
66547;BME280;53400;50.364;14.874;2023-02-11T07:22:18;100050.75;;;0.12;93.48
66547;BME280;53400;50.364;14.874;2023-02-11T07:24:44;100040.84;;;0.33;92.00
66547;BME280;53400;50.364;14.874;2023-02-11T07:27:10;100039.59;;;0.00;93.45
66547;BME280;53400;50.364;14.874;2023-02-11T07:29:38;100045.94;;;0.07;93.49
66547;BME280;53400;50.364;14.874;2023-02-11T07:32:04;100044.84;;;-0.10;93.92
66547;BME280;53400;50.364;14.874;2023-02-11T07:34:30;100041.09;;;0.03;94.01
66547;BME280;53400;50.364;14.874;2023-02-11T07:36:56;100045.03;;;-0.21;94.93
66547;BME280;53400;50.364;14.874;2023-02-11T07:39:22;100050.00;;;-0.37;97.23
66547;BME280;53400;50.364;14.874;2023-02-11T07:41:52;100057.66;;;-0.44;97.79
66547;BME280;53400;50.364;14.874;2023-02-11T07:44:17;100042.81;;;-0.35;97.69
66547;BME280;53400;50.364;14.874;2023-02-11T07:46:45;100045.81;;;-0.01;95.80
66547;BME280;53400;50.364;14.874;2023-02-11T07:49:13;100046.59;;;0.19;98.13
66547;BME280;53400;50.364;14.874;2023-02-11T07:51:39;100033.41;;;0.29;94.94
66547;BME280;53400;50.364;14.874;2023-02-11T07:54:06;100035.00;;;0.39;98.45
66547;BME280;53400;50.364;14.874;2023-02-11T07:56:32;100041.59;;;0.26;95.01
66547;BME280;53400;50.364;14.874;2023-02-11T07:59:00;100042.38;;;-0.11;95.93
66547;BME280;53400;50.364;14.874;2023-02-11T08:01:28;100037.94;;;-0.11;96.90
66547;BME280;53400;50.364;14.874;2023-02-11T08:03:58;100034.31;;;-0.10;96.37
66547;BME280;53400;50.364;14.874;2023-02-11T08:06:27;100039.59;;;0.00;97.05
66547;BME280;53400;50.364;14.874;2023-02-11T08:08:53;100027.63;;;0.15;95.71
66547;BME280;53400;50.364;14.874;2023-02-11T08:11:21;100025.16;;;0.41;94.64
66547;BME280;53400;50.364;14.874;2023-02-11T08:13:47;100027.44;;;0.54;94.35
66547;BME280;53400;50.364;14.874;2023-02-11T08:16:17;100030.47;;;0.32;95.67
66547;BME280;53400;50.364;14.874;2023-02-11T08:18:43;100044.41;;;0.05;96.38
66547;BME280;53400;50.364;14.874;2023-02-11T08:21:11;100050.31;;;0.26;96.90
66547;BME280;53400;50.364;14.874;2023-02-11T08:23:38;100050.19;;;0.28;96.35
66547;BME280;53400;50.364;14.874;2023-02-11T08:26:07;100050.34;;;0.54;95.21
66547;BME280;53400;50.364;14.874;2023-02-11T08:28:35;100042.66;;;0.70;94.40
66547;BME280;53400;50.364;14.874;2023-02-11T08:31:04;100048.13;;;0.59;93.73
66547;BME280;53400;50.364;14.874;2023-02-11T08:33:30;100044.75;;;0.66;93.95
66547;BME280;53400;50.364;14.874;2023-02-11T08:35:57;100038.63;;;0.94;93.23
66547;BME280;53400;50.364;14.874;2023-02-11T08:38:24;100037.16;;;1.09;92.27
66547;BME280;53400;50.364;14.874;2023-02-11T08:40:50;100027.66;;;0.98;91.21
66547;BME280;53400;50.364;14.874;2023-02-11T08:43:16;100018.25;;;1.13;90.94
66547;BME280;53400;50.364;14.874;2023-02-11T08:45:43;100036.38;;;0.99;91.79
66547;BME280;53400;50.364;14.874;2023-02-11T08:48:08;100049.22;;;1.11;91.38
66547;BME280;53400;50.364;14.874;2023-02-11T08:50:37;100040.59;;;1.09;90.29
66547;BME280;53400;50.364;14.874;2023-02-11T08:53:03;100041.31;;;1.29;90.42
66547;BME280;53400;50.364;14.874;2023-02-11T08:55:30;100042.06;;;1.57;89.21
66547;BME280;53400;50.364;14.874;2023-02-11T08:57:56;100046.00;;;1.53;88.93
66547;BME280;53400;50.364;14.874;2023-02-11T09:00:23;100048.84;;;1.42;90.03
66547;BME280;53400;50.364;14.874;2023-02-11T09:02:49;100046.91;;;1.44;89.77
66547;BME280;53400;50.364;14.874;2023-02-11T09:05:15;100041.72;;;1.34;90.03
66547;BME280;53400;50.364;14.874;2023-02-11T09:07:41;100039.41;;;1.40;90.12
66547;BME280;53400;50.364;14.874;2023-02-11T09:10:07;100040.09;;;1.59;89.15
66547;BME280;53400;50.364;14.874;2023-02-11T09:12:35;100025.78;;;1.62;89.51
66547;BME280;53400;50.364;14.874;2023-02-11T09:15:01;100023.94;;;1.80;89.07
66547;BME280;53400;50.364;14.874;2023-02-11T09:17:26;100028.47;;;1.70;89.56
66547;BME280;53400;50.364;14.874;2023-02-11T09:19:53;100028.94;;;1.92;88.92
66547;BME280;53400;50.364;14.874;2023-02-11T09:22:18;100030.31;;;1.96;88.55
66547;BME280;53400;50.364;14.874;2023-02-11T09:24:44;100024.88;;;1.97;87.86
66547;BME280;53400;50.364;14.874;2023-02-11T09:27:10;100037.00;;;2.08;87.65
66547;BME280;53400;50.364;14.874;2023-02-11T09:29:39;100036.63;;;2.03;88.72
66547;BME280;53400;50.364;14.874;2023-02-11T09:32:04;100045.75;;;2.09;88.22
66547;BME280;53400;50.364;14.874;2023-02-11T09:34:30;100039.59;;;2.00;89.46
66547;BME280;53400;50.364;14.874;2023-02-11T09:36:56;100044.13;;;2.16;88.70
66547;BME280;53400;50.364;14.874;2023-02-11T09:39:22;100050.59;;;2.13;88.07
66547;BME280;53400;50.364;14.874;2023-02-11T09:42:09;100052.19;;;2.06;88.03
66547;BME280;53400;50.364;14.874;2023-02-11T09:44:45;100057.47;;;2.06;88.08
66547;BME280;53400;50.364;14.874;2023-02-11T09:47:22;100061.25;;;2.29;88.07
66547;BME280;53400;50.364;14.874;2023-02-11T09:49:52;100060.56;;;2.27;87.60
66547;BME280;53400;50.364;14.874;2023-02-11T09:52:32;100062.75;;;2.32;87.28
66547;BME280;53400;50.364;14.874;2023-02-11T09:55:03;100059.91;;;2.25;87.60
66547;BME280;53400;50.364;14.874;2023-02-11T09:57:31;100065.66;;;2.47;86.66
66547;BME280;53400;50.364;14.874;2023-02-11T10:00:00;100059.44;;;2.56;86.37
66547;BME280;53400;50.364;14.874;2023-02-11T10:02:31;100051.63;;;2.55;86.83
66547;BME280;53400;50.364;14.874;2023-02-11T10:05:20;100047.78;;;2.41;87.98
66547;BME280;53400;50.364;14.874;2023-02-11T10:07:58;100048.31;;;2.52;86.98
66547;BME280;53400;50.364;14.874;2023-02-11T10:10:41;100042.25;;;2.60;86.52
66547;BME280;53400;50.364;14.874;2023-02-11T10:13:20;100029.34;;;2.57;87.03
66547;BME280;53400;50.364;14.874;2023-02-11T10:15:58;100022.31;;;2.74;87.51
66547;BME280;53400;50.364;14.874;2023-02-11T10:18:41;100008.13;;;2.83;87.34
66547;BME280;53400;50.364;14.874;2023-02-11T10:21:16;100003.03;;;3.06;86.14
66547;BME280;53400;50.364;14.874;2023-02-11T10:23:47;100024.06;;;3.16;86.21
66547;BME280;53400;50.364;14.874;2023-02-11T10:26:17;100015.91;;;2.93;86.14
66547;BME280;53400;50.364;14.874;2023-02-11T10:28:46;100008.50;;;3.05;86.51
66547;BME280;53400;50.364;14.874;2023-02-11T10:31:16;99997.72;;;3.06;85.90
66547;BME280;53400;50.364;14.874;2023-02-11T10:33:46;99987.50;;;3.11;86.07
66547;BME280;53400;50.364;14.874;2023-02-11T10:36:16;99984.47;;;2.90;86.33
66547;BME280;53400;50.364;14.874;2023-02-11T10:38:43;99977.50;;;2.81;86.85
66547;BME280;53400;50.364;14.874;2023-02-11T10:41:09;99988.09;;;2.81;86.58
66547;BME280;53400;50.364;14.874;2023-02-11T10:43:40;99983.28;;;2.76;87.51
66547;BME280;53400;50.364;14.874;2023-02-11T10:46:15;99981.34;;;2.86;87.58
66547;BME280;53400;50.364;14.874;2023-02-11T10:48:44;99962.47;;;2.89;86.84
66547;BME280;53400;50.364;14.874;2023-02-11T10:51:16;99964.28;;;2.81;87.37
66547;BME280;53400;50.364;14.874;2023-02-11T10:53:44;99977.84;;;2.94;87.44
66547;BME280;53400;50.364;14.874;2023-02-11T10:56:13;99964.13;;;2.90;87.27
66547;BME280;53400;50.364;14.874;2023-02-11T10:58:54;99963.63;;;2.95;87.27
66547;BME280;53400;50.364;14.874;2023-02-11T11:01:37;99963.13;;;2.91;87.54
66547;BME280;53400;50.364;14.874;2023-02-11T11:04:03;99969.09;;;2.93;87.36
66547;BME280;53400;50.364;14.874;2023-02-11T11:06:32;99962.00;;;3.02;86.73
66547;BME280;53400;50.364;14.874;2023-02-11T11:09:00;99976.72;;;2.96;87.34
66547;BME280;53400;50.364;14.874;2023-02-11T11:11:27;99983.69;;;3.14;86.31
66547;BME280;53400;50.364;14.874;2023-02-11T11:13:56;99973.06;;;2.97;87.93
66547;BME280;53400;50.364;14.874;2023-02-11T11:16:26;99979.88;;;3.08;87.33
66547;BME280;53400;50.364;14.874;2023-02-11T11:19:19;99987.00;;;3.08;87.90
66547;BME280;53400;50.364;14.874;2023-02-11T11:21:48;99989.97;;;3.05;88.79
66547;BME280;53400;50.364;14.874;2023-02-11T11:24:18;100002.03;;;2.99;88.92
66547;BME280;53400;50.364;14.874;2023-02-11T11:26:48;99998.59;;;3.23;90.73
66547;BME280;53400;50.364;14.874;2023-02-11T11:29:16;99998.09;;;3.28;87.24
66547;BME280;53400;50.364;14.874;2023-02-11T11:31:50;99993.78;;;3.18;88.32
66547;BME280;53400;50.364;14.874;2023-02-11T11:34:31;99982.34;;;3.10;88.69
66547;BME280;53400;50.364;14.874;2023-02-11T11:37:00;99976.09;;;3.11;89.09
66547;BME280;53400;50.364;14.874;2023-02-11T11:39:28;99977.22;;;3.16;89.17
66547;BME280;53400;50.364;14.874;2023-02-11T11:41:57;99969.78;;;3.12;89.24
66547;BME280;53400;50.364;14.874;2023-02-11T11:44:29;99964.16;;;3.15;89.40
66547;BME280;53400;50.364;14.874;2023-02-11T11:47:23;99967.13;;;3.12;89.60
66547;BME280;53400;50.364;14.874;2023-02-11T11:50:13;99956.91;;;3.17;89.29
66547;BME280;53400;50.364;14.874;2023-02-11T11:52:51;99957.22;;;3.06;90.70
66547;BME280;53400;50.364;14.874;2023-02-11T11:55:21;99954.41;;;3.24;89.18
66547;BME280;53400;50.364;14.874;2023-02-11T11:57:50;99947.94;;;3.34;89.02
66547;BME280;53400;50.364;14.874;2023-02-11T12:00:18;99942.16;;;3.39;89.13
66547;BME280;53400;50.364;14.874;2023-02-11T12:03:03;99938.19;;;3.27;89.32
66547;BME280;53400;50.364;14.874;2023-02-11T12:05:37;99945.63;;;3.39;89.60
66547;BME280;53400;50.364;14.874;2023-02-11T12:08:15;99938.19;;;3.51;89.80
66547;BME280;53400;50.364;14.874;2023-02-11T12:10:57;99957.88;;;3.40;89.11
66547;BME280;53400;50.364;14.874;2023-02-11T12:13:34;99945.94;;;3.53;89.68
66547;BME280;53400;50.364;14.874;2023-02-11T12:16:11;99949.28;;;3.38;90.09
66547;BME280;53400;50.364;14.874;2023-02-11T12:18:54;99948.59;;;3.53;90.23
66547;BME280;53400;50.364;14.874;2023-02-11T12:21:33;99946.78;;;3.70;89.83
66547;BME280;53400;50.364;14.874;2023-02-11T12:24:11;99943.94;;;3.79;89.05
66547;BME280;53400;50.364;14.874;2023-02-11T12:26:46;99941.78;;;3.83;88.29
66547;BME280;53400;50.364;14.874;2023-02-11T12:29:23;99940.81;;;3.67;89.26
66547;BME280;53400;50.364;14.874;2023-02-11T12:32:03;99942.44;;;3.77;88.74
66547;BME280;53400;50.364;14.874;2023-02-11T12:34:44;99946.25;;;3.74;89.30
66547;BME280;53400;50.364;14.874;2023-02-11T12:37:22;99944.31;;;3.52;91.02
66547;BME280;53400;50.364;14.874;2023-02-11T12:39:55;99952.75;;;3.63;90.27
66547;BME280;53400;50.364;14.874;2023-02-11T12:42:37;99954.19;;;3.74;90.55
66547;BME280;53400;50.364;14.874;2023-02-11T12:45:33;99942.72;;;3.98;91.43
66547;BME280;53400;50.364;14.874;2023-02-11T12:48:29;99936.00;;;3.79;90.38
66547;BME280;53400;50.364;14.874;2023-02-11T12:51:08;99929.56;;;3.65;91.30
66547;BME280;53400;50.364;14.874;2023-02-11T12:53:49;99929.91;;;3.46;93.43
66547;BME280;53400;50.364;14.874;2023-02-11T12:56:23;99934.19;;;3.55;92.38
66547;BME280;53400;50.364;14.874;2023-02-11T12:58:54;99934.00;;;3.65;91.83
66547;BME280;53400;50.364;14.874;2023-02-11T13:01:25;99933.53;;;3.70;92.52